createdAt,value
2023-05-20T00:01:55.744Z,2.55
2023-05-20T00:04:22.408Z,3.15
2023-05-20T00:06:49.107Z,2.88
2023-05-20T00:09:17.346Z,2.20
2023-05-20T00:11:46.174Z,2.58
2023-05-20T00:14:12.982Z,2.65
2023-05-20T00:16:39.718Z,2.60
2023-05-20T00:19:06.504Z,3.22
2023-05-20T00:21:35.764Z,4.78
2023-05-20T00:24:02.599Z,3.33
2023-05-20T00:26:29.955Z,4.65
2023-05-20T00:28:56.611Z,3.45
2023-05-20T00:31:23.360Z,2.83
2023-05-20T00:33:50.129Z,3.08
2023-05-20T00:36:16.753Z,3.08
2023-05-20T00:38:43.463Z,3.58
2023-05-20T00:41:10.105Z,2.75
2023-05-20T00:43:36.753Z,2.63
2023-05-20T00:46:03.612Z,3.83
2023-05-20T00:48:40.045Z,3.67
2023-05-20T00:51:07.759Z,2.53
2023-05-20T00:53:36.625Z,3.35
2023-05-20T00:56:04.581Z,2.83
2023-05-20T00:58:32.137Z,2.80
2023-05-20T01:00:58.928Z,2.75
2023-05-20T01:03:25.937Z,3.10
2023-05-20T01:05:52.768Z,2.88
2023-05-20T01:08:19.438Z,3.08
2023-05-20T01:10:49.577Z,2.88
2023-05-20T01:13:21.984Z,3.15
2023-05-20T01:15:50.044Z,4.32
2023-05-20T01:18:20.660Z,3.25
2023-05-20T01:20:50.224Z,3.13
2023-05-20T01:23:17.338Z,3.53
2023-05-20T01:25:44.004Z,2.67
2023-05-20T01:28:18.190Z,2.47
2023-05-20T01:30:51.121Z,2.22
2023-05-20T01:33:21.950Z,2.55
2023-05-20T01:35:49.029Z,3.15
2023-05-20T01:38:17.895Z,2.28
2023-05-20T01:40:45.775Z,2.90
2023-05-20T01:43:15.096Z,3.95
2023-05-20T01:45:43.668Z,2.63
2023-05-20T01:48:13.729Z,3.47
2023-05-20T01:50:40.471Z,2.67
2023-05-20T01:53:09.586Z,3.13
2023-05-20T01:55:36.466Z,3.03
2023-05-20T01:58:03.409Z,3.78
2023-05-20T02:00:30.199Z,2.47
2023-05-20T02:02:56.907Z,2.88
2023-05-20T02:05:23.624Z,2.47
2023-05-20T02:07:50.287Z,2.60
2023-05-20T02:10:16.912Z,2.25
2023-05-20T02:12:43.642Z,2.13
2023-05-20T02:15:10.512Z,2.92
2023-05-20T02:17:37.319Z,3.70
2023-05-20T02:20:07.775Z,2.80
2023-05-20T02:22:34.374Z,3.28
2023-05-20T02:25:05.523Z,2.50
2023-05-20T02:27:32.430Z,2.75
2023-05-20T02:29:59.087Z,2.55
2023-05-20T02:32:28.168Z,2.80
2023-05-20T02:34:55.630Z,2.42
2023-05-20T02:37:22.312Z,2.75
2023-05-20T02:39:48.956Z,2.60
2023-05-20T02:42:15.908Z,2.75
2023-05-20T02:44:42.551Z,2.80
2023-05-20T02:47:09.170Z,2.35
2023-05-20T02:49:35.904Z,3.17
2023-05-20T02:52:02.657Z,3.00
2023-05-20T02:54:29.238Z,2.70
2023-05-20T02:56:55.849Z,2.60
2023-05-20T02:59:22.519Z,2.63
2023-05-20T03:01:49.184Z,3.30
2023-05-20T03:04:16.284Z,2.75
2023-05-20T03:06:44.524Z,3.25
2023-05-20T03:09:11.589Z,2.58
2023-05-20T03:11:38.339Z,2.92
2023-05-20T03:14:04.955Z,3.00
2023-05-20T03:16:31.697Z,3.42
2023-05-20T03:18:58.421Z,2.75
2023-05-20T03:21:25.309Z,3.03
2023-05-20T03:23:51.983Z,3.85
2023-05-20T03:26:18.607Z,2.95
2023-05-20T03:28:45.222Z,2.88
2023-05-20T03:31:11.879Z,2.65
2023-05-20T03:33:38.572Z,3.78
2023-05-20T03:36:06.640Z,2.65
2023-05-20T03:38:33.277Z,3.72
2023-05-20T03:40:59.912Z,2.38
2023-05-20T03:43:27.316Z,2.83
2023-05-20T03:45:53.944Z,2.30
2023-05-20T03:48:20.591Z,3.42
2023-05-20T03:50:47.313Z,2.80
2023-05-20T03:53:13.908Z,2.97
2023-05-20T03:55:40.834Z,3.35
2023-05-20T03:58:08.112Z,2.53
2023-05-20T04:00:34.715Z,3.58
2023-05-20T04:03:02.099Z,2.60
2023-05-20T04:05:28.833Z,2.80
2023-05-20T04:07:57.555Z,2.28
2023-05-20T04:10:24.270Z,2.58
2023-05-20T04:12:50.935Z,3.53
2023-05-20T04:15:17.756Z,3.63
2023-05-20T04:17:48.460Z,2.60
2023-05-20T04:20:15.254Z,3.53
2023-05-20T04:22:42.113Z,2.97
2023-05-20T04:25:09.862Z,2.90
2023-05-20T04:27:39.809Z,3.25
2023-05-20T04:30:07.262Z,3.03
2023-05-20T04:32:36.843Z,2.60
2023-05-20T04:35:07.771Z,2.90
2023-05-20T04:37:35.054Z,2.80
2023-05-20T04:40:03.199Z,3.00
2023-05-20T04:42:29.928Z,2.58
2023-05-20T04:44:56.476Z,3.33
2023-05-20T04:47:23.143Z,3.40
2023-05-20T04:49:50.363Z,3.10
2023-05-20T04:52:16.993Z,3.00
2023-05-20T04:54:43.613Z,2.72
2023-05-20T04:57:11.256Z,3.08
2023-05-20T04:59:37.850Z,2.00
2023-05-20T05:02:04.699Z,3.42
2023-05-20T05:04:31.433Z,3.10
2023-05-20T05:06:58.077Z,2.60
2023-05-20T05:09:25.896Z,3.85
2023-05-20T05:11:52.551Z,2.80
2023-05-20T05:14:19.509Z,2.65
2023-05-20T05:16:46.336Z,2.40
2023-05-20T05:19:13.771Z,2.58
2023-05-20T05:21:40.569Z,1.98
2023-05-20T05:24:09.809Z,2.90
2023-05-20T05:26:36.496Z,2.40
2023-05-20T05:29:03.142Z,3.03
2023-05-20T05:31:29.788Z,2.92
2023-05-20T05:33:56.410Z,2.58
2023-05-20T05:36:25.965Z,2.22
2023-05-20T05:38:52.552Z,2.67
2023-05-20T05:41:19.217Z,2.55
2023-05-20T05:43:45.935Z,1.90
2023-05-20T05:46:12.611Z,2.53
2023-05-20T05:48:39.303Z,2.13
2023-05-20T05:51:06.013Z,2.08
2023-05-20T05:53:32.638Z,2.10
2023-05-20T05:55:59.313Z,1.92
2023-05-20T05:58:26.034Z,1.70
2023-05-20T06:00:53.328Z,2.42
2023-05-20T06:03:20.227Z,1.83
2023-05-20T06:05:50.078Z,2.20
2023-05-20T06:08:16.907Z,1.92
2023-05-20T06:10:49.073Z,1.90
2023-05-20T06:13:16.510Z,1.98
2023-05-20T06:15:46.522Z,1.90
2023-05-20T06:18:13.364Z,1.40
2023-05-20T06:20:40.026Z,3.15
2023-05-20T06:23:06.739Z,1.65
2023-05-20T06:25:33.730Z,1.70
2023-05-20T06:28:00.455Z,2.28
2023-05-20T06:30:27.210Z,2.00
2023-05-20T06:32:53.995Z,1.95
2023-05-20T06:35:20.816Z,1.67
2023-05-20T06:37:47.603Z,1.55
2023-05-20T06:40:22.017Z,2.88
2023-05-20T06:42:49.980Z,1.50
2023-05-20T06:50:50.063Z,1.38
2023-05-20T06:59:48.054Z,1.35
2023-05-20T07:14:39.625Z,1.13
2023-05-20T07:17:09.552Z,1.60
2023-05-20T07:19:37.158Z,1.27
2023-05-20T07:22:09.421Z,1.23
2023-05-20T07:27:45.258Z,1.10
2023-05-20T07:30:12.056Z,1.40
2023-05-20T07:32:38.873Z,1.10
2023-05-20T07:35:15.138Z,2.67
2023-05-20T07:37:42.089Z,1.55
2023-05-20T07:40:09.757Z,1.05
2023-05-20T07:42:36.458Z,1.42
2023-05-20T07:45:04.677Z,1.70
2023-05-20T07:47:32.968Z,1.33
2023-05-20T07:49:59.680Z,1.30
2023-05-20T07:52:29.069Z,1.20
2023-05-20T07:54:56.327Z,1.23
2023-05-20T07:57:24.906Z,1.00
2023-05-20T07:59:51.986Z,1.38
2023-05-20T08:02:18.865Z,1.02
2023-05-20T08:04:45.552Z,1.02
2023-05-20T08:07:12.942Z,1.20
2023-05-20T08:09:41.171Z,1.42
2023-05-20T08:12:09.350Z,1.33
2023-05-20T08:14:37.431Z,1.20
2023-05-20T08:17:11.717Z,1.35
2023-05-20T08:19:46.863Z,1.10
2023-05-20T08:22:15.451Z,0.93
2023-05-20T08:24:44.139Z,1.40
2023-05-20T08:27:10.875Z,1.10
2023-05-20T08:29:37.503Z,1.10
2023-05-20T08:32:04.411Z,0.90
2023-05-20T08:34:31.017Z,1.20
2023-05-20T08:36:57.893Z,0.98
2023-05-20T08:39:25.603Z,1.00
2023-05-20T08:41:52.393Z,0.88
2023-05-20T08:44:19.686Z,1.00
2023-05-20T08:46:46.537Z,0.80
2023-05-20T08:49:13.654Z,0.65
2023-05-20T08:51:40.491Z,1.10
2023-05-20T08:54:09.576Z,0.90
2023-05-20T08:56:36.964Z,1.38
2023-05-20T08:59:03.855Z,0.90
2023-05-20T09:01:30.484Z,0.98
2023-05-20T09:03:57.181Z,0.98
2023-05-20T09:06:24.203Z,1.00
2023-05-20T09:08:51.927Z,1.25
2023-05-20T09:11:19.826Z,1.15
2023-05-20T09:13:46.404Z,0.75
2023-05-20T09:16:13.664Z,0.98
2023-05-20T09:18:41.003Z,0.80
2023-05-20T09:21:07.636Z,0.80
2023-05-20T09:23:37.987Z,0.70
2023-05-20T09:26:04.713Z,0.80
2023-05-20T09:28:31.308Z,0.68
2023-05-20T09:30:59.395Z,0.95
2023-05-20T09:33:30.427Z,0.60
2023-05-20T09:36:10.630Z,0.63
2023-05-20T09:38:39.683Z,0.70
2023-05-20T09:41:08.789Z,0.90
2023-05-20T09:43:37.384Z,1.30
2023-05-20T09:46:04.787Z,0.80
2023-05-20T09:48:34.246Z,0.82
2023-05-20T09:51:02.547Z,0.90
2023-05-20T09:53:29.296Z,0.70
2023-05-20T09:55:56.816Z,1.20
2023-05-20T09:58:25.308Z,0.90
2023-05-20T10:00:52.713Z,1.58
2023-05-20T10:03:22.864Z,1.25
2023-05-20T10:06:06.303Z,0.70
2023-05-20T10:08:57.646Z,1.48
2023-05-20T10:11:30.266Z,1.00
2023-05-20T10:14:21.717Z,1.08
2023-05-20T10:16:54.393Z,0.95
2023-05-20T10:19:24.070Z,0.90
2023-05-20T10:22:04.345Z,0.90
2023-05-20T10:24:35.489Z,1.40
2023-05-20T10:27:04.572Z,1.10
2023-05-20T10:29:43.358Z,0.88
2023-05-20T10:32:09.971Z,1.23
2023-05-20T10:34:48.071Z,1.13
2023-05-20T10:37:28.149Z,1.20
2023-05-20T10:40:08.771Z,1.05
2023-05-20T10:42:35.352Z,0.85
2023-05-20T10:45:01.923Z,1.05
2023-05-20T10:47:28.589Z,1.45
2023-05-20T10:49:55.578Z,0.82
2023-05-20T10:52:22.355Z,0.90
2023-05-20T10:54:58.872Z,1.08
2023-05-20T10:57:29.711Z,1.10
2023-05-20T10:59:56.619Z,0.88
2023-05-20T11:02:26.959Z,0.68
2023-05-20T11:04:56.112Z,1.02
2023-05-20T11:07:30.132Z,0.85
2023-05-20T11:09:57.349Z,0.90
2023-05-20T11:12:25.941Z,1.02
2023-05-20T11:14:52.953Z,0.98
2023-05-20T11:17:20.185Z,1.00
2023-05-20T11:19:48.519Z,1.10
2023-05-20T11:22:15.273Z,1.00
2023-05-20T11:24:42.009Z,0.75
2023-05-20T11:27:08.765Z,0.82
2023-05-20T11:29:35.498Z,0.80
2023-05-20T11:32:02.272Z,0.80
2023-05-20T11:34:39.229Z,0.82
2023-05-20T11:37:10.953Z,1.00
2023-05-20T11:39:38.017Z,0.82
2023-05-20T11:42:06.152Z,1.25
2023-05-20T11:44:32.994Z,0.95
2023-05-20T11:47:01.511Z,1.73
2023-05-20T11:49:28.600Z,0.80
2023-05-20T11:51:56.524Z,1.25
2023-05-20T11:54:24.628Z,1.15
2023-05-20T11:56:51.558Z,0.93
2023-05-20T11:59:18.162Z,1.48
2023-05-20T12:01:45.665Z,0.70
2023-05-20T12:04:16.416Z,1.25
2023-05-20T12:06:44.094Z,0.88
2023-05-20T12:09:11.337Z,0.70
2023-05-20T12:11:41.078Z,0.80
2023-05-20T12:14:08.612Z,0.80
2023-05-20T12:16:36.396Z,0.85
2023-05-20T12:19:04.192Z,0.90
2023-05-20T12:21:31.569Z,0.75
2023-05-20T12:24:01.741Z,0.88
2023-05-20T12:26:29.295Z,0.95
2023-05-20T12:28:56.412Z,0.80
2023-05-20T12:31:23.630Z,0.73
2023-05-20T12:33:50.751Z,0.90
2023-05-20T12:36:17.552Z,0.93
2023-05-20T12:38:44.489Z,0.82
2023-05-20T12:41:11.289Z,0.68
2023-05-20T12:43:37.954Z,0.65
2023-05-20T12:46:05.116Z,1.20
2023-05-20T12:48:32.005Z,0.80
2023-05-20T12:50:58.718Z,0.80
2023-05-20T12:53:25.485Z,0.70
2023-05-20T12:55:52.419Z,1.33
2023-05-20T12:58:19.164Z,1.02
2023-05-20T13:00:45.816Z,0.70
2023-05-20T13:03:12.550Z,0.60
2023-05-20T13:05:39.219Z,1.67
2023-05-20T13:08:06.331Z,1.13
2023-05-20T13:10:33.654Z,0.95
2023-05-20T13:13:00.398Z,0.70
2023-05-20T13:15:26.981Z,0.80
2023-05-20T13:17:54.471Z,0.73
2023-05-20T13:20:21.560Z,0.95
2023-05-20T13:22:52.436Z,0.90
2023-05-20T13:25:19.091Z,0.90
2023-05-20T13:27:45.628Z,0.60
2023-05-20T13:30:12.567Z,0.60
2023-05-20T13:32:39.222Z,0.98
2023-05-20T13:35:06.380Z,0.80
2023-05-20T13:37:33.002Z,1.30
2023-05-20T13:39:59.589Z,0.90
2023-05-20T13:42:26.212Z,0.70
2023-05-20T13:44:52.851Z,0.95
2023-05-20T13:47:19.465Z,0.85
2023-05-20T13:49:46.033Z,0.80
2023-05-20T13:52:12.697Z,0.80
2023-05-20T13:54:40.071Z,1.20
2023-05-20T13:57:08.092Z,1.15
2023-05-20T13:59:35.151Z,0.82
2023-05-20T14:02:02.254Z,0.90
2023-05-20T14:04:31.205Z,0.80
2023-05-20T14:06:59.261Z,0.95
2023-05-20T14:09:25.953Z,0.90
2023-05-20T14:11:52.529Z,0.80
2023-05-20T14:14:19.079Z,0.80
2023-05-20T14:16:45.657Z,1.10
2023-05-20T14:19:12.215Z,0.80
2023-05-20T14:21:38.856Z,0.80
2023-05-20T14:24:05.861Z,1.25
2023-05-20T14:26:33.637Z,1.23
2023-05-20T14:29:00.911Z,0.57
2023-05-20T14:31:30.548Z,1.60
2023-05-20T14:33:57.288Z,2.00
2023-05-20T14:36:24.063Z,0.90
2023-05-20T14:38:50.778Z,0.90
2023-05-20T14:41:17.356Z,0.63
2023-05-20T14:43:43.989Z,0.88
2023-05-20T14:46:11.104Z,0.88
2023-05-20T14:48:37.745Z,0.85
2023-05-20T14:51:04.584Z,2.10
2023-05-20T14:53:31.195Z,1.17
2023-05-20T14:55:57.855Z,1.10
2023-05-20T14:58:24.528Z,1.13
2023-05-20T15:00:53.689Z,0.95
2023-05-20T15:03:20.521Z,1.00
2023-05-20T15:05:47.196Z,0.77
2023-05-20T15:08:13.795Z,0.90
2023-05-20T15:10:40.521Z,0.68
2023-05-20T15:13:07.221Z,0.57
2023-05-20T15:15:34.325Z,1.30
2023-05-20T15:18:01.210Z,2.22
2023-05-20T15:20:27.910Z,1.40
2023-05-20T15:22:57.615Z,1.00
2023-05-20T15:25:25.649Z,1.58
2023-05-20T15:27:52.219Z,1.63
2023-05-20T15:30:18.844Z,1.30
2023-05-20T15:32:45.677Z,2.95
2023-05-20T15:35:12.418Z,4.53
2023-05-20T15:37:39.060Z,5.53
2023-05-20T15:40:06.614Z,1.63
2023-05-20T15:42:33.326Z,5.75
2023-05-20T15:44:59.893Z,2.05
2023-05-20T15:47:26.556Z,1.80
2023-05-20T15:49:54.521Z,1.55
2023-05-20T15:52:21.210Z,6.75
2023-05-20T15:54:47.816Z,3.92
2023-05-20T15:57:14.451Z,3.60
2023-05-20T15:59:41.333Z,14.95
2023-05-20T16:02:07.979Z,4.70
2023-05-20T16:04:34.727Z,4.82
2023-05-20T16:07:01.411Z,3.30
2023-05-20T16:09:27.994Z,2.85
2023-05-20T16:11:54.669Z,1.58
2023-05-20T16:14:34.124Z,1.83
2023-05-20T16:18:02.000Z,2.53
2023-05-20T16:35:26.036Z,2.90
2023-05-20T16:41:00.926Z,5.20
2023-05-20T16:49:31.115Z,3.50
2023-05-20T16:51:58.605Z,3.03
2023-05-20T16:54:25.545Z,2.75
2023-05-20T16:56:52.142Z,2.78
2023-05-20T16:59:18.780Z,2.28
2023-05-20T17:01:46.468Z,3.10
2023-05-20T17:04:13.095Z,1.92
2023-05-20T17:06:41.788Z,12.52
2023-05-20T17:09:08.822Z,4.93
2023-05-20T17:11:35.741Z,3.22
2023-05-20T17:14:03.247Z,3.35
2023-05-20T17:16:29.956Z,2.58
2023-05-20T17:18:57.547Z,1.83
2023-05-20T17:21:24.303Z,2.10
2023-05-20T17:23:51.152Z,2.17
2023-05-20T17:26:17.697Z,1.70
2023-05-20T17:28:44.309Z,1.80
2023-05-20T17:31:11.441Z,1.58
2023-05-20T17:33:38.150Z,1.60
2023-05-20T17:36:05.225Z,1.33
2023-05-20T17:38:31.805Z,1.63
2023-05-20T17:40:58.383Z,1.45
2023-05-20T17:43:27.802Z,1.80
2023-05-20T17:45:54.493Z,2.00
2023-05-20T17:48:21.204Z,1.60
2023-05-20T17:50:47.811Z,2.35
2023-05-20T17:53:14.431Z,1.40
2023-05-20T17:55:41.078Z,1.70
2023-05-20T17:58:07.727Z,1.95
2023-05-20T18:00:34.728Z,1.80
2023-05-20T18:03:01.683Z,1.35
2023-05-20T18:05:28.562Z,1.70
2023-05-20T18:07:55.168Z,1.70
2023-05-20T18:10:21.877Z,1.67
2023-05-20T18:12:48.493Z,1.58
2023-05-20T18:15:17.148Z,1.48
2023-05-20T18:17:45.092Z,1.65
2023-05-20T18:20:13.472Z,1.30
2023-05-20T18:22:45.170Z,1.70
2023-05-20T18:25:15.075Z,2.15
2023-05-20T18:27:42.675Z,1.48
2023-05-20T18:30:10.137Z,1.20
2023-05-20T18:32:36.957Z,1.20
2023-05-20T18:35:03.572Z,1.38
2023-05-20T18:37:30.225Z,1.30
2023-05-20T18:39:58.769Z,1.35
2023-05-20T18:42:25.798Z,1.10
2023-05-20T18:44:53.105Z,2.05
2023-05-20T18:47:19.893Z,2.28
2023-05-20T18:49:46.685Z,1.77
2023-05-20T18:52:13.270Z,1.13
2023-05-20T18:54:39.835Z,1.10
2023-05-20T18:57:08.089Z,1.33
2023-05-20T18:59:34.729Z,1.30
2023-05-20T19:02:01.404Z,0.95
2023-05-20T19:04:28.082Z,1.17
2023-05-20T19:06:54.630Z,1.35
2023-05-20T19:09:21.296Z,1.38
2023-05-20T19:11:47.952Z,1.42
2023-05-20T19:14:14.524Z,1.85
2023-05-20T19:16:41.188Z,1.25
2023-05-20T19:19:07.860Z,0.95
2023-05-20T19:21:34.497Z,1.27
2023-05-20T19:24:01.175Z,1.30
2023-05-20T19:26:27.811Z,1.38
2023-05-20T19:28:54.387Z,1.10
2023-05-20T19:31:21.443Z,1.25
2023-05-20T19:33:49.011Z,1.50
2023-05-20T19:36:16.559Z,1.00
2023-05-20T19:38:44.314Z,1.90
2023-05-20T19:41:12.356Z,1.08
2023-05-20T19:43:38.994Z,1.33
2023-05-20T19:46:08.876Z,1.17
2023-05-20T19:48:35.556Z,1.13
2023-05-20T19:51:02.492Z,0.90
2023-05-20T19:53:29.126Z,1.20
2023-05-20T19:55:56.275Z,1.15
2023-05-20T19:58:22.858Z,1.17
2023-05-20T20:00:49.437Z,0.90
2023-05-20T20:03:16.052Z,0.90
2023-05-20T20:05:42.713Z,0.90
2023-05-20T20:08:09.464Z,1.30
2023-05-20T20:10:37.667Z,0.80
2023-05-20T20:13:04.391Z,0.85
2023-05-20T20:15:32.042Z,0.70
2023-05-20T20:17:59.175Z,0.80
2023-05-20T20:20:26.899Z,0.90
2023-05-20T20:22:53.516Z,0.70
2023-05-20T20:25:20.497Z,0.63
2023-05-20T20:27:48.622Z,1.08
2023-05-20T20:30:15.605Z,0.82
2023-05-20T20:32:42.669Z,0.95
2023-05-20T20:35:10.831Z,1.40
2023-05-20T20:37:38.426Z,1.50
2023-05-20T20:40:13.377Z,0.80
2023-05-20T20:42:41.696Z,1.40
2023-05-20T20:45:08.854Z,1.00
2023-05-20T20:47:38.591Z,1.23
2023-05-20T20:50:05.935Z,1.10
2023-05-20T20:52:32.538Z,1.02
2023-05-20T20:54:59.177Z,0.90
2023-05-20T20:57:26.791Z,1.58
2023-05-20T20:59:57.669Z,1.23
2023-05-20T21:02:24.761Z,1.13
2023-05-20T21:04:51.320Z,1.05
2023-05-20T21:07:18.413Z,0.80
2023-05-20T21:09:45.772Z,1.00
2023-05-20T21:12:13.053Z,1.00
2023-05-20T21:14:39.592Z,0.85
2023-05-20T21:17:06.231Z,1.05
2023-05-20T21:19:33.063Z,0.75
2023-05-20T21:21:59.703Z,0.80
2023-05-20T21:24:26.240Z,0.65
2023-05-20T21:26:52.818Z,0.77
2023-05-20T21:29:19.438Z,1.13
2023-05-20T21:31:46.045Z,1.40
2023-05-20T21:34:12.638Z,1.08
2023-05-20T21:36:39.301Z,0.95
2023-05-20T21:39:05.994Z,1.13
2023-05-20T21:41:32.581Z,0.80
2023-05-20T21:43:59.202Z,0.90
2023-05-20T21:46:25.828Z,1.13
2023-05-20T21:48:52.434Z,0.93
2023-05-20T21:51:19.033Z,1.00
2023-05-20T21:53:45.861Z,0.82
2023-05-20T21:56:12.503Z,0.80
2023-05-20T21:58:41.327Z,0.70
2023-05-20T22:01:09.771Z,0.57
2023-05-20T22:03:36.913Z,1.38
2023-05-20T22:06:05.087Z,1.27
2023-05-20T22:08:34.700Z,0.88
2023-05-20T22:11:05.902Z,0.90
2023-05-20T22:13:33.207Z,1.08
2023-05-20T22:16:01.498Z,1.10
2023-05-20T22:18:29.202Z,1.30
2023-05-20T22:20:56.346Z,0.82
2023-05-20T22:23:22.902Z,0.77
2023-05-20T22:25:49.493Z,1.17
2023-05-20T22:28:16.762Z,1.15
2023-05-20T22:30:43.847Z,0.77
2023-05-20T22:33:11.956Z,0.93
2023-05-20T22:35:38.778Z,0.80
2023-05-20T22:38:05.646Z,0.98
2023-05-20T22:40:33.469Z,1.13
2023-05-20T22:43:00.169Z,0.70
2023-05-20T22:45:26.739Z,1.42
2023-05-20T22:47:54.147Z,0.80
2023-05-20T22:50:20.952Z,1.00
2023-05-20T22:52:47.544Z,1.55
2023-05-20T22:55:14.151Z,1.00
2023-05-20T22:57:40.865Z,1.10
2023-05-20T23:00:08.155Z,1.10
2023-05-20T23:02:35.177Z,0.90
2023-05-20T23:05:03.968Z,1.00
2023-05-20T23:07:31.307Z,0.90
2023-05-20T23:09:57.874Z,1.05
2023-05-20T23:12:24.439Z,1.10
2023-05-20T23:14:53.078Z,1.50
2023-05-20T23:17:19.637Z,2.38
2023-05-20T23:19:47.254Z,1.15
2023-05-20T23:22:14.268Z,0.82
2023-05-20T23:24:41.479Z,1.23
2023-05-20T23:27:08.061Z,1.33
2023-05-20T23:29:34.675Z,1.08
2023-05-20T23:32:01.243Z,1.20
2023-05-20T23:34:30.775Z,1.02
2023-05-20T23:36:57.338Z,2.15
2023-05-20T23:39:23.935Z,1.00
2023-05-20T23:41:50.677Z,1.00
2023-05-20T23:44:17.276Z,1.20
2023-05-20T23:46:44.894Z,1.05
2023-05-20T23:49:12.578Z,1.65
2023-05-20T23:51:39.177Z,1.08
2023-05-20T23:54:06.077Z,1.45
2023-05-20T23:56:32.664Z,0.90
2023-05-20T23:58:59.201Z,1.27
